Time;durP1;ratioP1;P1;durP2;ratioP2;P2;SDS_P1;SDS_P2;PMS_P1;PMS_P2;Temp;Humidity;BMP_temperature;BMP_pressure;BME280_temperature;BME280_humidity;BME280_pressure;Samples;Min_cycle;Max_cycle;Signal;HPM_P1;HPM_P2
2022/12/12 00:01:23;;;;;;;58.38;23.05;;;;;;;-0.21;100.00;100752.59;4997964;28;20034;-78
2022/12/12 00:03:49;;;;;;;59.90;22.58;;;;;;;-0.30;100.00;100760.97;4982936;28;20098;-77
2022/12/12 00:06:15;;;;;;;51.70;22.00;;;;;;;-0.39;100.00;100755.94;4997251;28;20033;-77
2022/12/12 00:08:41;;;;;;;56.40;22.17;;;;;;;-0.33;100.00;100765.59;4998156;28;20031;-77
2022/12/12 00:11:07;;;;;;;58.72;22.33;;;;;;;-0.46;100.00;100757.06;4995586;28;20050;-78
2022/12/12 00:13:33;;;;;;;54.42;22.15;;;;;;;-0.49;100.00;100754.50;4995012;28;20061;-77
2022/12/12 00:15:58;;;;;;;56.25;23.15;;;;;;;-0.53;100.00;100758.25;4993083;28;20505;-77
2022/12/12 00:18:25;;;;;;;57.28;23.60;;;;;;;-0.61;100.00;100761.19;4997468;28;20117;-77
2022/12/12 00:20:54;;;;;;;57.60;23.20;;;;;;;-0.64;100.00;100761.28;4952443;28;20038;-77
2022/12/12 00:23:19;;;;;;;55.83;23.73;;;;;;;-0.73;100.00;100753.56;4995593;28;20034;-77
2022/12/12 00:25:51;;;;;;;66.05;23.55;;;;;;;-0.78;100.00;100757.25;4997073;28;20058;-77
2022/12/12 00:28:16;;;;;;;67.45;24.42;;;;;;;-0.79;100.00;100754.63;4995635;28;20088;-77
2022/12/12 00:30:43;;;;;;;64.22;24.30;;;;;;;-0.88;100.00;100752.28;4991420;28;20428;-77
2022/12/12 00:33:09;;;;;;;64.70;22.88;;;;;;;-0.90;100.00;100765.75;4976141;28;20442;-78
2022/12/12 00:35:34;;;;;;;65.13;22.95;;;;;;;-0.93;100.00;100774.78;4964380;28;20045;-77
2022/12/12 00:38:00;;;;;;;59.80;22.88;;;;;;;-1.00;100.00;100766.97;4996285;28;20498;-78
2022/12/12 00:40:25;;;;;;;62.55;23.88;;;;;;;-0.90;100.00;100778.28;4994541;28;20141;-77
2022/12/12 00:42:50;;;;;;;70.15;24.55;;;;;;;-1.01;100.00;100771.47;4994769;28;20505;-79
2022/12/12 00:45:16;;;;;;;66.85;24.10;;;;;;;-1.02;100.00;100760.75;4978656;28;20070;-77
2022/12/12 00:47:42;;;;;;;64.97;23.52;;;;;;;-0.94;100.00;100767.63;4995655;28;20492;-77
2022/12/12 00:50:08;;;;;;;60.65;22.85;;;;;;;-1.07;100.00;100768.97;4978926;28;20113;-77
2022/12/12 00:52:33;;;;;;;71.82;23.52;;;;;;;-1.14;100.00;100762.91;4985056;28;20050;-77
2022/12/12 00:54:59;;;;;;;63.70;24.20;;;;;;;-1.13;100.00;100759.31;4995719;28;20041;-78
2022/12/12 00:57:25;;;;;;;59.03;23.27;;;;;;;-1.05;100.00;100769.81;4981908;28;20030;-78
2022/12/12 00:59:50;;;;;;;57.85;23.65;;;;;;;-1.25;100.00;100769.56;4984980;28;20053;-77
2022/12/12 01:02:15;;;;;;;67.32;23.55;;;;;;;-1.16;100.00;100771.97;4979274;28;20038;-78
2022/12/12 01:04:41;;;;;;;66.55;23.67;;;;;;;-1.24;100.00;100768.66;4995110;28;20041;-77
2022/12/12 01:07:07;;;;;;;55.60;22.48;;;;;;;-1.32;100.00;100783.19;4978653;28;20517;-78
2022/12/12 01:09:33;;;;;;;60.88;24.00;;;;;;;-1.31;100.00;100784.09;4992689;28;20040;-78
2022/12/12 01:11:59;;;;;;;63.97;23.13;;;;;;;-1.37;100.00;100787.81;4993649;28;20045;-78
2022/12/12 01:14:25;;;;;;;58.40;22.05;;;;;;;-1.37;100.00;100778.91;4976678;28;20092;-77
2022/12/12 01:16:50;;;;;;;60.50;23.15;;;;;;;-1.40;100.00;100785.22;4987622;28;20039;-78
2022/12/12 01:19:16;;;;;;;62.53;23.17;;;;;;;-1.32;100.00;100776.94;4976626;28;20034;-77
2022/12/12 01:21:41;;;;;;;65.30;23.45;;;;;;;-1.45;100.00;100772.88;4989714;28;20121;-79
2022/12/12 01:24:07;;;;;;;64.88;24.30;;;;;;;-1.45;100.00;100781.81;4962371;28;20528;-79
2022/12/12 01:26:33;;;;;;;66.18;23.58;;;;;;;-1.48;100.00;100795.31;4978103;28;20071;-78
2022/12/12 01:29:00;;;;;;;53.10;21.88;;;;;;;-1.54;100.00;100799.09;4978246;28;20493;-78
2022/12/12 01:31:26;;;;;;;69.32;24.23;;;;;;;-1.64;100.00;100796.72;4959784;28;20498;-78
2022/12/12 01:33:51;;;;;;;75.65;23.92;;;;;;;-1.61;100.00;100796.63;4990448;28;20121;-77
2022/12/12 01:36:21;;;;;;;68.03;24.38;;;;;;;-1.56;100.00;100800.94;4981747;28;20127;-77
2022/12/12 01:38:51;;;;;;;69.32;24.48;;;;;;;-1.51;100.00;100798.09;4977189;28;20041;-78
2022/12/12 01:41:18;;;;;;;71.63;25.65;;;;;;;-1.42;100.00;100805.88;4991621;28;20066;-77
2022/12/12 01:43:45;;;;;;;69.60;26.60;;;;;;;-1.41;100.00;100804.97;4995246;28;20033;-77
2022/12/12 01:46:32;;;;;;;81.57;26.30;;;;;;;-1.42;100.00;100808.56;4996043;28;20465;-77
2022/12/12 01:49:21;;;;;;;71.55;24.80;;;;;;;-1.51;100.00;100801.69;4994885;28;20030;-77
2022/12/12 01:51:49;;;;;;;69.78;25.38;;;;;;;-1.44;100.00;100812.22;4992207;28;20077;-77
2022/12/12 01:54:20;;;;;;;71.70;25.55;;;;;;;-1.41;100.00;100815.72;5000208;28;20031;-77
2022/12/12 01:56:48;;;;;;;69.13;23.95;;;;;;;-1.47;100.00;100815.88;5000670;28;20041;-77
2022/12/12 01:59:18;;;;;;;64.60;25.13;;;;;;;-1.43;100.00;100822.91;4983966;28;20108;-77
2022/12/12 02:01:44;;;;;;;71.38;23.83;;;;;;;-1.50;100.00;100821.34;4999177;28;20466;-77
2022/12/12 02:04:10;;;;;;;67.63;25.05;;;;;;;-1.47;100.00;100823.94;5014322;28;20069;-77
2022/12/12 02:06:37;;;;;;;69.05;25.23;;;;;;;-1.51;100.00;100808.84;4981255;28;20034;-77
2022/12/12 02:09:07;;;;;;;67.13;24.35;;;;;;;-1.39;100.00;100813.84;4997203;28;20034;-76
2022/12/12 02:11:40;;;;;;;71.88;24.98;;;;;;;-1.40;100.00;100828.19;4999748;28;20034;-77
2022/12/12 02:14:06;;;;;;;70.72;25.10;;;;;;;-1.38;100.00;100820.97;4989810;28;20034;-77
2022/12/12 02:16:51;;;;;;;58.28;23.42;;;;;;;-1.43;100.00;100816.66;4975076;28;20031;-77
2022/12/12 02:19:34;;;;;;;77.97;25.95;;;;;;;-1.33;100.00;100820.81;4982586;28;20391;-77
2022/12/12 02:22:09;;;;;;;71.28;23.88;;;;;;;-1.36;100.00;100828.97;4994911;28;20042;-79
2022/12/12 02:24:49;;;;;;;66.40;24.58;;;;;;;-1.31;100.00;100825.25;4981385;28;20051;-77
2022/12/12 02:27:39;;;;;;;71.72;25.77;;;;;;;-1.33;100.00;100826.19;4999397;28;20182;-78
2022/12/12 02:30:05;;;;;;;70.25;23.58;;;;;;;-1.40;100.00;100827.31;4999172;28;20031;-78
2022/12/12 02:33:00;;;;;;;66.32;24.05;;;;;;;-1.40;100.00;100828.19;4998396;28;20041;-78
2022/12/12 02:35:45;;;;;;;61.90;22.90;;;;;;;-1.51;100.00;100814.22;4999705;28;20528;-77
2022/12/12 02:38:32;;;;;;;64.40;21.60;;;;;;;-1.49;100.00;100820.44;4992820;28;20085;-77
2022/12/12 02:41:24;;;;;;;60.88;22.48;;;;;;;-1.51;100.00;100817.78;4979915;28;20041;-79
2022/12/12 02:43:55;;;;;;;62.25;23.88;;;;;;;-1.44;100.00;100821.16;4978641;28;20106;-78
2022/12/12 02:46:42;;;;;;;66.20;23.35;;;;;;;-1.54;100.00;100822.34;4980022;28;20438;-78
2022/12/12 02:49:23;;;;;;;71.65;24.17;;;;;;;-1.40;100.00;100824.63;4979384;28;20106;-78
2022/12/12 02:51:52;;;;;;;64.50;21.30;;;;;;;-1.43;100.00;100817.53;4963504;28;20026;-79
2022/12/12 02:54:21;;;;;;;65.40;22.27;;;;;;;-1.44;100.00;100815.81;4970790;28;20085;-79
2022/12/12 02:56:51;;;;;;;65.63;21.50;;;;;;;-1.53;100.00;100821.44;4994096;28;20038;-79
2022/12/12 02:59:47;;;;;;;65.80;21.85;;;;;;;-1.55;100.00;100824.16;4985265;28;20034;-78
2022/12/12 03:02:26;;;;;;;69.57;22.23;;;;;;;-1.63;100.00;100820.81;4992982;28;20458;-78
2022/12/12 03:08:00;;;;;;;74.95;22.77;;;;;;;-1.72;100.00;100821.09;4999945;28;20034;-78
2022/12/12 03:10:31;;;;;;;62.88;22.52;;;;;;;-1.70;100.00;100817.44;4987780;28;20038;-77
2022/12/12 03:13:29;;;;;;;63.00;21.58;;;;;;;-1.76;100.00;100820.28;4983507;28;20046;-78
2022/12/12 03:16:35;;;;;;;61.58;21.52;;;;;;;-1.82;100.00;100815.13;5008671;28;20030;-78
2022/12/12 03:19:09;;;;;;;58.70;20.10;;;;;;;-1.83;100.00;100823.22;4930221;29;20062;-77
2022/12/12 03:21:55;;;;;;;64.13;21.52;;;;;;;-1.88;100.00;100817.97;4989963;28;20049;-78
2022/12/12 03:24:21;;;;;;;65.43;22.35;;;;;;;-1.82;100.00;100816.91;4992655;28;20108;-77
2022/12/12 03:26:55;;;;;;;68.05;22.83;;;;;;;-1.85;100.00;100828.63;4997076;28;20043;-78
2022/12/12 03:29:33;;;;;;;68.22;23.73;;;;;;;-1.82;100.00;100823.19;4994934;28;20038;-78
2022/12/12 03:32:06;;;;;;;64.55;24.65;;;;;;;-1.83;100.00;100821.41;4998615;28;20451;-78
2022/12/12 03:34:41;;;;;;;68.00;23.60;;;;;;;-1.86;100.00;100827.72;4997444;28;20375;-77
2022/12/12 03:37:16;;;;;;;62.05;21.27;;;;;;;-1.88;100.00;100829.59;4998694;28;20567;-77
2022/12/12 03:39:49;;;;;;;68.35;23.83;;;;;;;-1.84;100.00;100822.31;4992875;28;20058;-81
2022/12/12 03:42:25;;;;;;;60.08;21.65;;;;;;;-1.86;100.00;100829.53;5002107;28;20122;-81
2022/12/12 03:45:24;;;;;;;68.70;23.15;;;;;;;-1.85;100.00;100824.13;5000688;28;20071;-81
2022/12/12 03:48:00;;;;;;;69.55;23.45;;;;;;;-2.10;100.00;100829.31;4992427;28;20065;-81
2022/12/12 03:51:14;;;;;;;68.07;25.08;;;;;;;-2.05;100.00;100832.75;4987318;28;20042;-81
2022/12/12 03:53:55;;;;;;;67.75;23.98;;;;;;;-2.06;100.00;100825.59;4964507;28;20422;-79
2022/12/12 03:56:48;;;;;;;72.63;23.25;;;;;;;-2.14;100.00;100832.13;4989409;28;20070;-81
2022/12/12 03:59:22;;;;;;;71.63;22.02;;;;;;;-2.22;100.00;100832.31;4992489;28;20057;-80
2022/12/12 04:01:52;;;;;;;72.72;23.23;;;;;;;-2.26;100.00;100823.47;5000114;28;20040;-80
2022/12/12 04:04:33;;;;;;;70.18;21.80;;;;;;;-2.24;100.00;100835.03;4994642;28;20149;-81
2022/12/12 04:07:18;;;;;;;61.97;22.35;;;;;;;-2.24;100.00;100834.16;4999319;28;20066;-81
2022/12/12 04:15:30;;;;;;;58.95;21.38;;;;;;;-2.29;100.00;100844.13;4997291;28;20088;-81
2022/12/12 04:18:29;;;;;;;69.28;22.95;;;;;;;-2.35;100.00;100841.59;4990171;28;20038;-80
2022/12/12 04:23:53;;;;;;;63.92;21.13;;;;;;;-2.34;100.00;100836.22;5001063;28;20045;-79
2022/12/12 04:26:40;;;;;;;59.75;21.08;;;;;;;-2.27;100.00;100850.31;4996084;28;20058;-81
2022/12/12 04:29:08;;;;;;;66.03;22.40;;;;;;;-2.31;100.00;100849.53;4995363;28;20085;-82
2022/12/12 04:31:40;;;;;;;72.80;22.50;;;;;;;-2.33;100.00;100858.53;4984054;28;20034;-81
2022/12/12 04:34:16;;;;;;;73.85;22.88;;;;;;;-2.39;100.00;100848.84;5001131;28;20042;-81
2022/12/12 04:36:46;;;;;;;63.22;20.67;;;;;;;-2.40;100.00;100853.31;5002576;28;20073;-80
2022/12/12 04:39:18;;;;;;;69.63;21.70;;;;;;;-2.40;100.00;100856.00;4966678;28;20094;-81
2022/12/12 04:41:47;;;;;;;64.40;22.38;;;;;;;-2.41;100.00;100843.53;5005393;28;20034;-81
2022/12/12 04:44:14;;;;;;;73.00;21.80;;;;;;;-2.35;100.00;100865.72;5002650;28;20063;-81
2022/12/12 04:46:41;;;;;;;73.03;23.52;;;;;;;-2.48;100.00;100846.41;5008469;28;20038;-81
2022/12/12 04:49:18;;;;;;;70.80;21.75;;;;;;;-2.61;100.00;100824.38;4994590;28;20034;-81
2022/12/12 04:51:48;;;;;;;69.60;21.60;;;;;;;-2.51;100.00;100863.44;4993499;28;20076;-80
2022/12/12 04:54:19;;;;;;;65.97;22.85;;;;;;;-2.47;100.00;100851.72;4989355;28;20031;-80
2022/12/12 04:56:51;;;;;;;66.38;21.17;;;;;;;-2.40;100.00;100856.00;4989382;28;20076;-80
2022/12/12 04:59:17;;;;;;;64.30;21.60;;;;;;;-2.47;100.00;100851.72;5009018;28;20025;-81
2022/12/12 05:02:07;;;;;;;65.75;22.67;;;;;;;-2.32;100.00;100866.53;4990367;28;20034;-81
2022/12/12 05:04:40;;;;;;;70.05;22.58;;;;;;;-2.46;100.00;100866.91;5011909;28;20084;-81
2022/12/12 05:07:16;;;;;;;70.32;24.45;;;;;;;-2.63;100.00;100855.72;4996880;28;20045;-81
2022/12/12 05:09:42;;;;;;;62.97;22.02;;;;;;;-2.72;100.00;100861.28;4983429;28;20066;-81
2022/12/12 05:12:08;;;;;;;64.40;22.63;;;;;;;-2.79;100.00;100853.41;4995891;28;20049;-79
2022/12/12 05:14:33;;;;;;;66.07;22.05;;;;;;;-2.78;100.00;100860.50;4978946;28;20426;-82
2022/12/12 05:17:05;;;;;;;62.72;21.02;;;;;;;-2.88;100.00;100848.25;4991415;28;20552;-82
2022/12/12 05:19:31;;;;;;;63.95;22.33;;;;;;;-2.87;100.00;100870.56;5001339;28;20034;-81
2022/12/12 05:21:59;;;;;;;65.43;21.40;;;;;;;-2.91;100.00;100864.41;5001847;28;20536;-82
2022/12/12 05:24:29;;;;;;;63.30;22.73;;;;;;;-2.85;100.00;100866.06;4995288;28;20022;-81
2022/12/12 05:26:59;;;;;;;68.18;22.92;;;;;;;-2.88;100.00;100868.81;4958332;28;20046;-82
2022/12/12 05:29:24;;;;;;;69.40;21.90;;;;;;;-2.85;100.00;100863.41;4995086;28;20108;-82
2022/12/12 05:31:50;;;;;;;71.40;23.13;;;;;;;-2.86;100.00;100861.63;5000756;28;20108;-83
2022/12/12 05:34:16;;;;;;;65.13;21.08;;;;;;;-2.84;100.00;100854.41;4997217;28;20061;-81
2022/12/12 05:36:41;;;;;;;67.47;22.83;;;;;;;-2.83;100.00;100859.75;4985143;28;20049;-82
2022/12/12 05:39:07;;;;;;;70.72;23.85;;;;;;;-2.84;100.00;100868.69;5000228;28;20034;-84
2022/12/12 05:41:32;;;;;;;75.75;21.90;;;;;;;-2.87;100.00;100867.88;4990697;28;20046;-82
2022/12/12 05:44:03;;;;;;;72.18;21.48;;;;;;;-3.01;100.00;100868.22;4995714;28;20034;-82
2022/12/12 05:46:29;;;;;;;79.68;23.60;;;;;;;-3.07;100.00;100854.97;4996641;28;20031;-82
2022/12/12 05:48:54;;;;;;;69.80;24.05;;;;;;;-3.04;100.00;100869.16;4999533;28;20089;-79
2022/12/12 05:51:20;;;;;;;69.88;23.15;;;;;;;-3.01;100.00;100871.78;4998622;28;20453;-82
2022/12/12 05:53:46;;;;;;;63.72;22.95;;;;;;;-3.06;100.00;100880.84;4999781;28;20057;-82
2022/12/12 05:56:12;;;;;;;73.70;24.05;;;;;;;-3.04;100.00;100876.31;5000364;28;20087;-80
2022/12/12 05:58:42;;;;;;;61.33;21.50;;;;;;;-3.00;100.00;100875.31;5000557;28;20106;-82
2022/12/12 06:01:09;;;;;;;67.25;22.58;;;;;;;-3.03;100.00;100872.75;4973098;28;20050;-81
2022/12/12 06:03:34;;;;;;;68.75;22.45;;;;;;;-3.01;100.00;100860.19;4983783;28;20389;-82
2022/12/12 06:06:00;;;;;;;61.75;22.80;;;;;;;-3.02;100.00;100871.81;4983176;28;20039;-83
2022/12/12 06:08:25;;;;;;;68.05;22.88;;;;;;;-3.18;100.00;100855.19;5001331;28;20038;-81
2022/12/12 06:10:54;;;;;;;64.65;22.20;;;;;;;-3.28;100.00;100875.97;4973134;28;20501;-80
2022/12/12 06:13:22;;;;;;;63.40;21.45;;;;;;;-3.23;100.00;100878.50;4982482;28;20074;-82
2022/12/12 06:15:48;;;;;;;57.97;20.30;;;;;;;-3.18;100.00;100892.69;4988728;28;20166;-81
2022/12/12 06:18:14;;;;;;;61.38;20.83;;;;;;;-3.34;100.00;100876.97;4983228;28;20042;-82
2022/12/12 06:20:39;;;;;;;58.20;20.90;;;;;;;-3.27;100.00;100888.41;4968678;28;20382;-81
2022/12/12 06:23:06;;;;;;;61.40;21.23;;;;;;;-3.47;100.00;100861.22;4999618;28;20030;-82
2022/12/12 06:25:33;;;;;;;61.75;21.30;;;;;;;-3.23;100.00;100884.78;5001278;28;20117;-82
2022/12/12 06:27:59;;;;;;;66.00;23.67;;;;;;;-3.20;100.00;100879.34;4987413;28;20039;-83
2022/12/12 06:30:25;;;;;;;67.63;23.75;;;;;;;-3.15;100.00;100896.19;4982057;28;20049;-82
2022/12/12 06:32:51;;;;;;;69.95;21.30;;;;;;;-3.18;100.00;100895.34;4999427;28;20050;-82
2022/12/12 06:35:20;;;;;;;60.63;21.80;;;;;;;-3.27;100.00;100903.59;5004304;28;20041;-81
2022/12/12 06:37:47;;;;;;;62.03;21.88;;;;;;;-3.29;100.00;100897.41;5003430;28;20041;-83
2022/12/12 06:40:13;;;;;;;69.88;23.17;;;;;;;-3.42;100.00;100903.00;4987010;28;20045;-81
2022/12/12 06:42:38;;;;;;;61.45;22.95;;;;;;;-3.51;100.00;100900.50;4981755;28;20034;-80
2022/12/12 06:45:05;;;;;;;66.30;22.77;;;;;;;-3.48;100.00;100911.16;4992611;28;20437;-80
2022/12/12 06:47:30;;;;;;;68.18;23.75;;;;;;;-3.72;100.00;100901.84;4993962;28;20045;-80
2022/12/12 06:49:56;;;;;;;53.97;21.38;;;;;;;-3.49;100.00;100913.84;5005307;28;20042;-81
2022/12/12 06:52:22;;;;;;;65.25;21.70;;;;;;;-3.45;100.00;100904.88;5021699;28;20066;-81
2022/12/12 06:54:47;;;;;;;51.38;20.15;;;;;;;-3.52;100.00;100920.19;4989634;28;20497;-82
2022/12/12 06:57:13;;;;;;;57.30;20.55;;;;;;;-3.57;100.00;100920.25;5004497;28;20045;-81
2022/12/12 06:59:38;;;;;;;62.97;21.85;;;;;;;-3.51;100.00;100930.84;4981279;28;20049;-79
2022/12/12 07:02:03;;;;;;;63.05;20.45;;;;;;;-3.50;100.00;100923.69;5000690;28;20097;-81
2022/12/12 07:04:29;;;;;;;61.60;21.80;;;;;;;-3.45;100.00;100929.81;5003031;28;20433;-81
2022/12/12 07:06:54;;;;;;;59.30;21.20;;;;;;;-3.44;100.00;100928.94;4990100;28;20034;-82
2022/12/12 07:09:20;;;;;;;61.97;22.48;;;;;;;-3.43;100.00;100921.78;4990322;28;20054;-81
2022/12/12 07:11:46;;;;;;;60.78;21.55;;;;;;;-3.62;100.00;100934.63;4978303;28;20039;-83
2022/12/12 07:14:11;;;;;;;58.80;20.95;;;;;;;-3.70;100.00;100942.81;4988404;28;20039;-82
2022/12/12 07:16:37;;;;;;;54.17;19.98;;;;;;;-3.66;100.00;100941.84;5003698;28;20115;-81
2022/12/12 07:19:03;;;;;;;63.75;20.95;;;;;;;-3.65;100.00;100938.25;4987505;28;20529;-82
2022/12/12 07:21:28;;;;;;;58.88;22.77;;;;;;;-3.65;100.00;100938.25;5003816;28;20070;-82
2022/12/12 07:23:55;;;;;;;65.38;21.23;;;;;;;-3.63;100.00;100935.56;4985017;28;20425;-81
2022/12/12 07:26:22;;;;;;;64.90;20.63;;;;;;;-3.56;100.00;100942.53;5000887;28;20109;-80
2022/12/12 07:28:50;;;;;;;50.78;20.13;;;;;;;-3.53;100.00;100937.13;4976840;28;20473;-81
2022/12/12 07:31:19;;;;;;;64.97;21.38;;;;;;;-3.59;100.00;100947.94;4995421;28;20038;-82
2022/12/12 07:33:45;;;;;;;58.50;21.23;;;;;;;-3.66;100.00;100944.50;4991059;28;20038;-78
2022/12/12 07:36:12;;;;;;;62.55;20.50;;;;;;;-3.62;100.00;100950.66;4998230;28;20050;-79
2022/12/12 07:38:38;;;;;;;61.28;19.30;;;;;;;-3.58;100.00;100947.91;5000409;28;20027;-82
2022/12/12 07:41:12;;;;;;;54.67;20.00;;;;;;;-3.58;100.00;100953.28;5001647;28;20045;-80
2022/12/12 07:43:39;;;;;;;52.28;19.98;;;;;;;-3.77;100.00;100930.44;5002323;28;20023;-80
2022/12/12 07:46:09;;;;;;;58.78;20.35;;;;;;;-3.60;100.00;100957.78;4993915;28;20046;-81
2022/12/12 07:48:35;;;;;;;58.75;19.83;;;;;;;-3.68;100.00;100934.75;4983310;28;20046;-82
2022/12/12 07:51:02;;;;;;;51.40;19.27;;;;;;;-3.70;100.00;100945.50;5014939;28;20398;-82
2022/12/12 07:53:28;;;;;;;53.78;20.92;;;;;;;-3.74;100.00;100943.78;4998738;28;20035;-83
2022/12/12 07:55:55;;;;;;;53.05;19.92;;;;;;;-3.82;100.00;100938.59;5000499;28;20034;-81
2022/12/12 07:58:21;;;;;;;65.28;21.08;;;;;;;-3.77;100.00;100955.44;5014065;28;20045;-81
2022/12/12 08:00:47;;;;;;;64.30;21.33;;;;;;;-3.85;100.00;100938.63;4999431;28;20034;-81
2022/12/12 08:03:12;;;;;;;64.18;21.00;;;;;;;-3.80;100.00;100946.59;4999922;28;20406;-80
2022/12/12 08:05:42;;;;;;;57.47;20.60;;;;;;;-3.74;100.00;100951.78;5001910;28;20041;-81
2022/12/12 08:08:07;;;;;;;55.38;19.42;;;;;;;-3.68;100.00;100956.16;4996465;28;20031;-80
2022/12/12 08:10:33;;;;;;;59.30;19.67;;;;;;;-3.77;100.00;100962.53;4999540;28;20117;-81
2022/12/12 08:12:58;;;;;;;59.17;19.75;;;;;;;-3.75;100.00;100966.97;5000917;28;20042;-81
2022/12/12 08:15:24;;;;;;;60.47;20.00;;;;;;;-3.70;100.00;100969.56;4996996;28;20049;-81
2022/12/12 08:17:49;;;;;;;63.58;20.52;;;;;;;-3.86;100.00;100947.56;4982568;28;20133;-78
2022/12/12 08:20:16;;;;;;;60.08;22.40;;;;;;;-3.61;100.00;100968.50;4980786;28;20482;-79
2022/12/12 08:22:41;;;;;;;61.67;20.67;;;;;;;-3.56;100.00;100972.88;4999742;28;20030;-80
2022/12/12 08:25:07;;;;;;;62.63;19.27;;;;;;;-3.61;100.00;100968.50;4982643;28;20061;-78
2022/12/12 08:27:35;;;;;;;57.63;20.10;;;;;;;-3.55;100.00;100973.75;4983527;28;20064;-80
2022/12/12 08:30:00;;;;;;;59.72;20.08;;;;;;;-3.56;100.00;100970.19;4992406;28;20048;-80
2022/12/12 08:32:26;;;;;;;55.65;19.00;;;;;;;-3.47;100.00;100978.97;4982792;28;20062;-79
2022/12/12 08:34:57;;;;;;;60.15;21.02;;;;;;;-3.52;100.00;100977.25;4968884;28;20110;-80
2022/12/12 08:37:23;;;;;;;64.13;20.42;;;;;;;-3.49;100.00;100989.69;5014577;28;20461;-81
2022/12/12 08:39:49;;;;;;;57.17;20.23;;;;;;;-3.49;100.00;100984.34;5000604;28;20493;-80
2022/12/12 08:42:15;;;;;;;47.58;18.33;;;;;;;-3.45;100.00;100979.81;4999969;28;20035;-80
2022/12/12 08:44:40;;;;;;;52.67;18.33;;;;;;;-3.50;100.00;100985.25;4979521;28;20133;-80
2022/12/12 08:47:09;;;;;;;59.97;20.98;;;;;;;-3.42;100.00;100988.66;4965313;28;20114;-80
2022/12/12 08:49:34;;;;;;;50.65;17.70;;;;;;;-3.44;100.00;100977.09;4995898;28;20037;-81
2022/12/12 08:52:00;;;;;;;51.67;18.65;;;;;;;-3.40;100.00;100980.59;4940489;28;20144;-81
2022/12/12 08:54:26;;;;;;;46.72;18.58;;;;;;;-3.33;100.00;100988.47;4985076;28;20121;-80
2022/12/12 08:56:52;;;;;;;59.42;19.80;;;;;;;-3.34;100.00;101002.78;4984731;28;20541;-81
2022/12/12 08:59:17;;;;;;;53.17;19.75;;;;;;;-3.32;100.00;100997.38;4999237;28;20053;-80
2022/12/12 09:01:43;;;;;;;52.67;19.38;;;;;;;-3.29;100.00;100991.97;4983424;28;20062;-80
2022/12/12 09:04:08;;;;;;;54.70;19.05;;;;;;;-3.24;100.00;100991.91;4984989;28;20471;-82
2022/12/12 09:06:34;;;;;;;54.75;18.85;;;;;;;-3.21;100.00;100995.38;4972121;28;20093;-81
2022/12/12 09:09:00;;;;;;;49.90;18.40;;;;;;;-3.20;100.00;100991.81;4984627;28;20039;-81
2022/12/12 09:11:25;;;;;;;54.22;19.75;;;;;;;-3.08;100.00;101005.81;5001169;28;20054;-81
2022/12/12 09:13:51;;;;;;;55.60;20.13;;;;;;;-3.05;100.00;100997.75;5000657;28;20027;-81
2022/12/12 09:16:20;;;;;;;48.22;16.80;;;;;;;-3.09;100.00;101001.41;4999978;28;20032;-82
2022/12/12 09:18:46;;;;;;;53.25;18.52;;;;;;;-3.03;100.00;101006.66;5000576;28;20034;-82
2022/12/12 09:21:12;;;;;;;58.53;19.38;;;;;;;-3.00;100.00;101001.19;4984617;28;20030;-81
2022/12/12 09:23:37;;;;;;;67.00;20.10;;;;;;;-2.98;100.00;101010.97;5000278;28;20105;-82
2022/12/12 09:26:07;;;;;;;57.83;19.35;;;;;;;-2.89;100.00;101012.56;4983369;28;20494;-80
2022/12/12 09:28:33;;;;;;;57.28;19.20;;;;;;;-2.92;100.00;100995.69;5001713;28;20097;-81
2022/12/12 09:30:58;;;;;;;56.13;18.98;;;;;;;-2.72;100.00;101008.66;5000877;28;20042;-82
2022/12/12 09:33:24;;;;;;;60.88;19.63;;;;;;;-2.66;100.00;101006.72;5000113;28;20077;-80
2022/12/12 09:36:01;;;;;;;54.58;18.77;;;;;;;-2.53;100.00;101010.00;5001912;28;20037;-81
2022/12/12 09:38:26;;;;;;;54.03;19.13;;;;;;;-2.32;100.00;101013.13;5002854;28;20039;-81
2022/12/12 09:41:09;;;;;;;52.67;18.58;;;;;;;-2.10;100.00;101014.38;4967885;28;20040;-80
2022/12/12 09:44:01;;;;;;;49.70;17.70;;;;;;;-1.83;100.00;101011.06;4998018;28;20116;-82
2022/12/12 09:46:36;;;;;;;49.60;17.75;;;;;;;-1.79;100.00;101010.03;4999297;28;20386;-82
2022/12/12 09:49:10;;;;;;;42.92;17.77;;;;;;;-1.68;100.00;101016.03;4999937;28;20031;-81
2022/12/12 09:51:36;;;;;;;53.15;18.63;;;;;;;-1.71;100.00;101008.91;4976674;28;20034;-79
2022/12/12 09:54:02;;;;;;;44.28;16.20;;;;;;;-1.55;100.00;101008.53;4985261;28;20061;-79
2022/12/12 09:56:39;;;;;;;47.53;17.85;;;;;;;-1.49;100.00;101009.25;5000268;28;20457;-79
2022/12/12 09:59:21;;;;;;;48.72;15.95;;;;;;;-1.57;100.00;101015.75;4999977;28;20065;-80
2022/12/12 10:02:16;;;;;;;42.30;16.77;;;;;;;-1.32;100.00;101008.78;4963361;28;20038;-79
2022/12/12 10:04:50;;;;;;;44.45;17.08;;;;;;;-1.13;100.00;101022.59;4973151;28;20038;-79
2022/12/12 10:07:25;;;;;;;51.70;16.63;;;;;;;-1.17;100.00;101020.03;4998637;28;20058;-78
2022/12/12 10:10:14;;;;;;;43.70;15.70;;;;;;;-1.05;100.00;101011.63;5003238;28;20529;-78
2022/12/12 10:12:41;;;;;;;40.30;15.98;;;;;;;-0.96;100.00;101011.34;5003547;28;20026;-78
2022/12/12 10:15:19;;;;;;;49.92;16.48;;;;;;;-0.82;100.00;101000.22;4961813;28;20042;-79
2022/12/12 10:17:46;;;;;;;47.92;17.20;;;;;;;-1.02;100.00;100998.09;4990408;28;20038;-79
2022/12/12 10:20:21;;;;;;;50.92;16.10;;;;;;;-0.82;100.00;100993.94;5003579;28;20062;-78
2022/12/12 10:23:07;;;;;;;44.15;16.10;;;;;;;-0.77;100.00;100992.88;5000292;28;20041;-77
2022/12/12 10:25:47;;;;;;;39.40;14.77;;;;;;;-0.53;100.00;100989.50;5000053;28;20057;-79
2022/12/12 10:28:16;;;;;;;44.80;16.80;;;;;;;-0.46;100.00;100988.38;5002658;28;20069;-80
2022/12/12 10:30:56;;;;;;;43.67;16.17;;;;;;;-0.48;100.00;100990.22;5000921;28;20041;-80
2022/12/12 10:33:41;;;;;;;40.38;16.45;;;;;;;-0.50;100.00;100994.78;5002067;28;20034;-78
2022/12/12 10:36:15;;;;;;;45.90;15.23;;;;;;;-0.41;100.00;100995.38;5018325;28;20564;-79
2022/12/12 10:39:05;;;;;;;44.78;14.77;;;;;;;-0.23;100.00;100996.59;4997101;28;20067;-77
2022/12/12 10:41:50;;;;;;;38.97;14.20;;;;;;;-0.32;100.00;100991.50;5000526;28;20050;-78
2022/12/12 10:44:23;;;;;;;39.88;14.25;;;;;;;-0.20;100.00;100995.59;5002345;28;20030;-78
2022/12/12 10:47:09;;;;;;;46.10;16.27;;;;;;;-0.11;100.00;100989.06;5000235;28;20822;-78
2022/12/12 10:49:35;;;;;;;33.55;13.60;;;;;;;-0.11;100.00;100989.06;4993075;28;20501;-78
2022/12/12 10:52:05;;;;;;;43.55;15.90;;;;;;;-0.08;100.00;100994.31;4990219;28;20034;-79
2022/12/12 10:54:40;;;;;;;37.05;14.35;;;;;;;-0.03;100.00;100990.56;4999318;28;20061;-78
2022/12/12 10:57:10;;;;;;;38.47;13.85;;;;;;;-0.11;100.00;100989.06;5001033;28;20117;-77
2022/12/12 10:59:57;;;;;;;35.30;14.25;;;;;;;0.15;100.00;100983.69;4995735;28;20041;-78
2022/12/12 11:02:41;;;;;;;38.85;14.05;;;;;;;-0.01;100.00;100983.31;5002505;28;20030;-78
2022/12/12 11:05:17;;;;;;;37.38;14.95;;;;;;;0.18;100.00;100988.06;5003271;28;20035;-78
2022/12/12 11:07:45;;;;;;;33.45;13.68;;;;;;;0.14;100.00;100967.59;4970276;28;20046;-78
2022/12/12 11:10:31;;;;;;;37.85;14.02;;;;;;;0.33;100.00;100978.63;4993328;28;20026;-78
2022/12/12 11:13:11;;;;;;;37.08;14.52;;;;;;;0.22;100.00;100976.28;4964537;28;20453;-77
2022/12/12 11:15:59;;;;;;;37.55;14.85;;;;;;;0.14;100.00;100946.03;4987353;28;20022;-77
2022/12/12 11:18:25;;;;;;;33.55;13.40;;;;;;;0.20;100.00;100972.75;4988542;28;20031;-78
2022/12/12 11:21:08;;;;;;;34.92;13.45;;;;;;;0.14;100.00;100979.22;4964390;28;20050;-77
2022/12/12 11:23:38;;;;;;;39.00;15.07;;;;;;;0.07;100.00;100983.06;4999729;28;20109;-77
2022/12/12 11:26:16;;;;;;;37.83;16.15;;;;;;;0.19;100.00;100981.75;4996698;28;20110;-78
2022/12/12 11:28:44;;;;;;;37.97;14.48;;;;;;;0.20;100.00;100972.75;4998281;28;20050;-79
2022/12/12 11:31:15;;;;;;;34.13;13.63;;;;;;;0.12;100.00;100973.03;4998560;28;20046;-78